sensor_id;sensor_type;location;lat;lon;timestamp;temperature;humidity
3488;DHT22;38546;48.170;11.724;2023-03-12T00:01:45;0.30;99.90
3488;DHT22;38546;48.170;11.724;2023-03-12T00:04:35;0.30;99.90
3488;DHT22;38546;48.170;11.724;2023-03-12T00:07:24;0.30;99.90
3488;DHT22;38546;48.170;11.724;2023-03-12T00:10:13;0.30;99.90
3488;DHT22;38546;48.170;11.724;2023-03-12T00:13:02;0.30;99.90
3488;DHT22;38546;48.170;11.724;2023-03-12T00:15:52;0.30;99.90
3488;DHT22;38546;48.170;11.724;2023-03-12T00:18:42;0.40;99.90
3488;DHT22;38546;48.170;11.724;2023-03-12T00:21:32;0.40;99.90
3488;DHT22;38546;48.170;11.724;2023-03-12T00:24:21;0.30;99.90
3488;DHT22;38546;48.170;11.724;2023-03-12T00:27:10;0.40;99.90
3488;DHT22;38546;48.170;11.724;2023-03-12T00:29:59;0.40;99.90
3488;DHT22;38546;48.170;11.724;2023-03-12T00:32:48;0.30;99.90
3488;DHT22;38546;48.170;11.724;2023-03-12T00:35:38;0.30;99.90
3488;DHT22;38546;48.170;11.724;2023-03-12T00:38:27;0.30;99.90
3488;DHT22;38546;48.170;11.724;2023-03-12T00:41:16;0.30;99.90
3488;DHT22;38546;48.170;11.724;2023-03-12T00:44:07;0.30;99.90
3488;DHT22;38546;48.170;11.724;2023-03-12T00:46:56;0.30;99.90
3488;DHT22;38546;48.170;11.724;2023-03-12T00:49:46;0.30;99.90
3488;DHT22;38546;48.170;11.724;2023-03-12T00:52:35;0.20;99.90
3488;DHT22;38546;48.170;11.724;2023-03-12T00:55:24;0.20;99.90
3488;DHT22;38546;48.170;11.724;2023-03-12T00:58:14;0.10;99.90
3488;DHT22;38546;48.170;11.724;2023-03-12T01:01:04;0.00;99.90
3488;DHT22;38546;48.170;11.724;2023-03-12T01:03:54;-0.10;99.90
3488;DHT22;38546;48.170;11.724;2023-03-12T01:06:43;-0.10;99.90
3488;DHT22;38546;48.170;11.724;2023-03-12T01:09:33;-0.20;99.90
3488;DHT22;38546;48.170;11.724;2023-03-12T01:12:22;-0.20;99.90
3488;DHT22;38546;48.170;11.724;2023-03-12T01:15:14;-0.20;99.90
3488;DHT22;38546;48.170;11.724;2023-03-12T01:18:04;-0.30;99.90
3488;DHT22;38546;48.170;11.724;2023-03-12T01:20:53;-0.30;99.90
3488;DHT22;38546;48.170;11.724;2023-03-12T01:23:42;-0.30;99.90
3488;DHT22;38546;48.170;11.724;2023-03-12T01:26:32;-0.30;99.90
3488;DHT22;38546;48.170;11.724;2023-03-12T01:29:21;-0.30;99.90
3488;DHT22;38546;48.170;11.724;2023-03-12T01:32:10;-0.30;99.90
3488;DHT22;38546;48.170;11.724;2023-03-12T01:34:59;-0.30;99.90
3488;DHT22;38546;48.170;11.724;2023-03-12T01:37:49;-0.30;99.90
3488;DHT22;38546;48.170;11.724;2023-03-12T01:40:39;-0.20;99.90
3488;DHT22;38546;48.170;11.724;2023-03-12T01:43:33;-0.10;99.90
3488;DHT22;38546;48.170;11.724;2023-03-12T01:46:47;-0.10;99.90
3488;DHT22;38546;48.170;11.724;2023-03-12T01:49:36;-0.10;99.90
3488;DHT22;38546;48.170;11.724;2023-03-12T01:52:29;-0.10;99.90
3488;DHT22;38546;48.170;11.724;2023-03-12T01:55:20;-0.20;99.90
3488;DHT22;38546;48.170;11.724;2023-03-12T01:58:10;-0.20;99.90
3488;DHT22;38546;48.170;11.724;2023-03-12T02:00:59;-0.20;99.90
3488;DHT22;38546;48.170;11.724;2023-03-12T02:03:53;-0.20;99.90
3488;DHT22;38546;48.170;11.724;2023-03-12T02:06:48;-0.30;99.90
3488;DHT22;38546;48.170;11.724;2023-03-12T02:09:48;-0.20;99.90
3488;DHT22;38546;48.170;11.724;2023-03-12T02:12:37;-0.20;99.90
3488;DHT22;38546;48.170;11.724;2023-03-12T02:15:27;-0.10;99.90
3488;DHT22;38546;48.170;11.724;2023-03-12T02:18:18;-0.10;99.90
3488;DHT22;38546;48.170;11.724;2023-03-12T02:21:19;0.00;99.90
3488;DHT22;38546;48.170;11.724;2023-03-12T02:24:24;0.00;99.90
3488;DHT22;38546;48.170;11.724;2023-03-12T02:27:25;0.00;99.90
3488;DHT22;38546;48.170;11.724;2023-03-12T02:30:15;0.00;99.90
3488;DHT22;38546;48.170;11.724;2023-03-12T02:33:07;0.00;99.90
3488;DHT22;38546;48.170;11.724;2023-03-12T02:35:56;0.00;99.90
3488;DHT22;38546;48.170;11.724;2023-03-12T02:38:48;0.10;99.90
3488;DHT22;38546;48.170;11.724;2023-03-12T02:41:46;0.10;99.90
3488;DHT22;38546;48.170;11.724;2023-03-12T02:44:38;0.10;99.90
3488;DHT22;38546;48.170;11.724;2023-03-12T02:47:27;0.10;99.90
3488;DHT22;38546;48.170;11.724;2023-03-12T02:50:16;0.10;99.90
3488;DHT22;38546;48.170;11.724;2023-03-12T02:53:06;0.10;99.90
3488;DHT22;38546;48.170;11.724;2023-03-12T02:55:55;0.10;99.90
3488;DHT22;38546;48.170;11.724;2023-03-12T02:58:44;0.10;99.90
3488;DHT22;38546;48.170;11.724;2023-03-12T03:01:34;0.00;99.90
3488;DHT22;38546;48.170;11.724;2023-03-12T03:04:27;0.00;99.90
3488;DHT22;38546;48.170;11.724;2023-03-12T03:07:17;-0.10;99.90
3488;DHT22;38546;48.170;11.724;2023-03-12T03:10:07;-0.10;99.90
3488;DHT22;38546;48.170;11.724;2023-03-12T03:12:57;-0.10;99.90
3488;DHT22;38546;48.170;11.724;2023-03-12T03:15:47;-0.10;99.90
3488;DHT22;38546;48.170;11.724;2023-03-12T03:18:36;-0.10;99.90
3488;DHT22;38546;48.170;11.724;2023-03-12T03:21:26;-0.10;99.90
3488;DHT22;38546;48.170;11.724;2023-03-12T03:24:16;-0.10;99.90
3488;DHT22;38546;48.170;11.724;2023-03-12T03:27:06;-0.10;99.90
3488;DHT22;38546;48.170;11.724;2023-03-12T03:29:55;0.00;99.90
3488;DHT22;38546;48.170;11.724;2023-03-12T03:32:44;0.00;99.90
3488;DHT22;38546;48.170;11.724;2023-03-12T03:35:34;0.10;99.90
3488;DHT22;38546;48.170;11.724;2023-03-12T03:38:23;0.10;99.90
3488;DHT22;38546;48.170;11.724;2023-03-12T03:41:12;0.00;99.90
3488;DHT22;38546;48.170;11.724;2023-03-12T03:44:02;0.10;99.90
3488;DHT22;38546;48.170;11.724;2023-03-12T03:46:53;0.10;99.90
3488;DHT22;38546;48.170;11.724;2023-03-12T03:49:43;0.10;99.90
3488;DHT22;38546;48.170;11.724;2023-03-12T03:52:32;0.20;99.90
3488;DHT22;38546;48.170;11.724;2023-03-12T03:55:21;0.20;99.90
3488;DHT22;38546;48.170;11.724;2023-03-12T03:58:12;0.20;99.90
3488;DHT22;38546;48.170;11.724;2023-03-12T04:01:02;0.30;99.90
3488;DHT22;38546;48.170;11.724;2023-03-12T04:03:52;0.30;99.90
3488;DHT22;38546;48.170;11.724;2023-03-12T04:06:41;0.30;99.90
3488;DHT22;38546;48.170;11.724;2023-03-12T04:09:31;0.30;99.90
3488;DHT22;38546;48.170;11.724;2023-03-12T04:12:20;0.40;99.90
3488;DHT22;38546;48.170;11.724;2023-03-12T04:15:12;0.40;99.90
3488;DHT22;38546;48.170;11.724;2023-03-12T04:18:01;0.40;99.90
3488;DHT22;38546;48.170;11.724;2023-03-12T04:20:51;0.50;99.90
3488;DHT22;38546;48.170;11.724;2023-03-12T04:23:41;0.50;99.90
3488;DHT22;38546;48.170;11.724;2023-03-12T04:26:30;0.50;99.90
3488;DHT22;38546;48.170;11.724;2023-03-12T04:29:19;0.50;99.90
3488;DHT22;38546;48.170;11.724;2023-03-12T04:32:08;0.60;99.90
3488;DHT22;38546;48.170;11.724;2023-03-12T04:34:58;0.60;99.90
3488;DHT22;38546;48.170;11.724;2023-03-12T04:37:47;0.60;99.90
3488;DHT22;38546;48.170;11.724;2023-03-12T04:40:36;0.60;99.90
3488;DHT22;38546;48.170;11.724;2023-03-12T04:43:26;0.60;99.90
3488;DHT22;38546;48.170;11.724;2023-03-12T04:46:16;0.60;99.90
3488;DHT22;38546;48.170;11.724;2023-03-12T04:49:06;0.60;99.90
3488;DHT22;38546;48.170;11.724;2023-03-12T04:51:57;0.70;99.90
3488;DHT22;38546;48.170;11.724;2023-03-12T04:54:47;0.70;99.90
3488;DHT22;38546;48.170;11.724;2023-03-12T04:57:36;0.80;99.90
3488;DHT22;38546;48.170;11.724;2023-03-12T05:00:25;0.70;99.90
3488;DHT22;38546;48.170;11.724;2023-03-12T05:03:15;0.80;99.90
3488;DHT22;38546;48.170;11.724;2023-03-12T05:06:04;0.80;99.90
3488;DHT22;38546;48.170;11.724;2023-03-12T05:08:54;0.80;99.90
3488;DHT22;38546;48.170;11.724;2023-03-12T05:11:42;0.80;99.90
3488;DHT22;38546;48.170;11.724;2023-03-12T05:14:32;0.80;99.90
3488;DHT22;38546;48.170;11.724;2023-03-12T05:17:21;0.80;99.90
3488;DHT22;38546;48.170;11.724;2023-03-12T05:20:12;0.90;99.90
3488;DHT22;38546;48.170;11.724;2023-03-12T05:23:01;0.90;99.90
3488;DHT22;38546;48.170;11.724;2023-03-12T05:25:50;0.90;99.90
3488;DHT22;38546;48.170;11.724;2023-03-12T05:28:39;0.90;99.90
3488;DHT22;38546;48.170;11.724;2023-03-12T05:31:29;0.90;99.90
3488;DHT22;38546;48.170;11.724;2023-03-12T05:34:21;0.90;99.90
3488;DHT22;38546;48.170;11.724;2023-03-12T05:37:10;0.90;99.90
3488;DHT22;38546;48.170;11.724;2023-03-12T05:40:00;0.90;99.90
3488;DHT22;38546;48.170;11.724;2023-03-12T05:42:49;1.00;99.90
3488;DHT22;38546;48.170;11.724;2023-03-12T05:45:38;1.00;99.90
3488;DHT22;38546;48.170;11.724;2023-03-12T05:48:28;1.00;99.90
3488;DHT22;38546;48.170;11.724;2023-03-12T05:51:17;1.00;99.90
3488;DHT22;38546;48.170;11.724;2023-03-12T05:54:07;1.00;99.90
3488;DHT22;38546;48.170;11.724;2023-03-12T05:56:56;1.00;99.90
3488;DHT22;38546;48.170;11.724;2023-03-12T05:59:46;1.10;99.90
3488;DHT22;38546;48.170;11.724;2023-03-12T06:02:34;1.10;99.90
3488;DHT22;38546;48.170;11.724;2023-03-12T06:05:24;1.20;99.90
3488;DHT22;38546;48.170;11.724;2023-03-12T06:08:13;1.30;99.90
3488;DHT22;38546;48.170;11.724;2023-03-12T06:11:02;1.40;99.90
3488;DHT22;38546;48.170;11.724;2023-03-12T06:13:51;1.40;99.90
3488;DHT22;38546;48.170;11.724;2023-03-12T06:16:40;1.50;99.90
3488;DHT22;38546;48.170;11.724;2023-03-12T06:19:29;1.60;99.90
3488;DHT22;38546;48.170;11.724;2023-03-12T06:22:18;1.60;99.90
3488;DHT22;38546;48.170;11.724;2023-03-12T06:25:08;1.70;99.90
3488;DHT22;38546;48.170;11.724;2023-03-12T06:27:58;1.80;99.90
3488;DHT22;38546;48.170;11.724;2023-03-12T06:30:47;1.90;99.90
3488;DHT22;38546;48.170;11.724;2023-03-12T06:33:37;1.90;99.90
3488;DHT22;38546;48.170;11.724;2023-03-12T06:36:26;2.00;99.90
3488;DHT22;38546;48.170;11.724;2023-03-12T06:39:16;2.10;99.90
3488;DHT22;38546;48.170;11.724;2023-03-12T06:42:06;2.10;99.90
3488;DHT22;38546;48.170;11.724;2023-03-12T06:44:56;2.20;99.90
3488;DHT22;38546;48.170;11.724;2023-03-12T06:47:45;2.30;99.90
3488;DHT22;38546;48.170;11.724;2023-03-12T06:50:34;2.30;99.90
3488;DHT22;38546;48.170;11.724;2023-03-12T06:53:24;2.40;99.90
3488;DHT22;38546;48.170;11.724;2023-03-12T06:56:15;2.50;99.90
3488;DHT22;38546;48.170;11.724;2023-03-12T06:59:04;2.50;99.90
3488;DHT22;38546;48.170;11.724;2023-03-12T07:01:54;2.60;99.90
3488;DHT22;38546;48.170;11.724;2023-03-12T07:04:43;2.60;99.90
3488;DHT22;38546;48.170;11.724;2023-03-12T07:07:32;2.80;99.90
3488;DHT22;38546;48.170;11.724;2023-03-12T07:10:22;2.90;99.90
3488;DHT22;38546;48.170;11.724;2023-03-12T07:13:12;3.00;99.90
3488;DHT22;38546;48.170;11.724;2023-03-12T07:16:02;2.90;99.90
3488;DHT22;38546;48.170;11.724;2023-03-12T07:18:51;3.00;99.90
3488;DHT22;38546;48.170;11.724;2023-03-12T07:21:41;3.00;99.90
3488;DHT22;38546;48.170;11.724;2023-03-12T07:24:30;3.00;99.90
3488;DHT22;38546;48.170;11.724;2023-03-12T07:27:19;3.00;99.90
3488;DHT22;38546;48.170;11.724;2023-03-12T07:30:10;3.10;99.90
3488;DHT22;38546;48.170;11.724;2023-03-12T07:33:08;3.10;99.90
3488;DHT22;38546;48.170;11.724;2023-03-12T07:35:58;3.20;99.90
3488;DHT22;38546;48.170;11.724;2023-03-12T07:38:48;3.30;99.90
3488;DHT22;38546;48.170;11.724;2023-03-12T07:41:37;3.40;99.90
3488;DHT22;38546;48.170;11.724;2023-03-12T07:44:27;3.40;99.90
3488;DHT22;38546;48.170;11.724;2023-03-12T07:47:16;3.50;99.90
3488;DHT22;38546;48.170;11.724;2023-03-12T07:50:05;3.50;99.90
3488;DHT22;38546;48.170;11.724;2023-03-12T07:52:55;3.70;99.90
3488;DHT22;38546;48.170;11.724;2023-03-12T07:55:45;3.90;99.90
3488;DHT22;38546;48.170;11.724;2023-03-12T07:58:35;4.00;99.90
3488;DHT22;38546;48.170;11.724;2023-03-12T08:01:24;4.40;99.90
3488;DHT22;38546;48.170;11.724;2023-03-12T08:04:19;4.40;99.90
3488;DHT22;38546;48.170;11.724;2023-03-12T08:07:09;4.40;99.90
3488;DHT22;38546;48.170;11.724;2023-03-12T08:09:59;4.40;99.90
3488;DHT22;38546;48.170;11.724;2023-03-12T08:12:49;4.60;99.90
3488;DHT22;38546;48.170;11.724;2023-03-12T08:15:39;4.70;99.90
3488;DHT22;38546;48.170;11.724;2023-03-12T08:18:28;4.70;99.90
3488;DHT22;38546;48.170;11.724;2023-03-12T08:21:17;4.90;99.90
3488;DHT22;38546;48.170;11.724;2023-03-12T08:24:07;4.80;99.90
3488;DHT22;38546;48.170;11.724;2023-03-12T08:26:57;4.80;99.90
3488;DHT22;38546;48.170;11.724;2023-03-12T08:29:46;4.70;99.90
3488;DHT22;38546;48.170;11.724;2023-03-12T08:32:35;4.70;99.90
3488;DHT22;38546;48.170;11.724;2023-03-12T08:35:24;4.70;99.90
3488;DHT22;38546;48.170;11.724;2023-03-12T08:38:13;4.70;99.90
3488;DHT22;38546;48.170;11.724;2023-03-12T08:41:03;4.70;99.90
3488;DHT22;38546;48.170;11.724;2023-03-12T08:43:53;4.70;99.90
3488;DHT22;38546;48.170;11.724;2023-03-12T08:46:42;4.80;99.90
3488;DHT22;38546;48.170;11.724;2023-03-12T08:49:31;4.90;99.90
3488;DHT22;38546;48.170;11.724;2023-03-12T08:52:20;4.90;99.90
3488;DHT22;38546;48.170;11.724;2023-03-12T08:55:10;5.00;99.90
3488;DHT22;38546;48.170;11.724;2023-03-12T08:57:59;5.10;99.90
3488;DHT22;38546;48.170;11.724;2023-03-12T09:00:49;5.20;99.90
3488;DHT22;38546;48.170;11.724;2023-03-12T09:03:39;5.20;99.90
3488;DHT22;38546;48.170;11.724;2023-03-12T09:06:30;5.20;99.90
3488;DHT22;38546;48.170;11.724;2023-03-12T09:09:20;5.20;99.90
3488;DHT22;38546;48.170;11.724;2023-03-12T09:12:09;5.30;99.90
3488;DHT22;38546;48.170;11.724;2023-03-12T09:14:59;5.30;99.90
3488;DHT22;38546;48.170;11.724;2023-03-12T09:17:48;5.40;99.90
3488;DHT22;38546;48.170;11.724;2023-03-12T09:20:41;5.40;99.90
3488;DHT22;38546;48.170;11.724;2023-03-12T09:23:31;5.90;99.90
3488;DHT22;38546;48.170;11.724;2023-03-12T09:26:20;5.90;99.90
3488;DHT22;38546;48.170;11.724;2023-03-12T09:29:09;5.70;99.90
3488;DHT22;38546;48.170;11.724;2023-03-12T09:31:59;5.40;99.90
3488;DHT22;38546;48.170;11.724;2023-03-12T09:34:48;5.30;99.90
3488;DHT22;38546;48.170;11.724;2023-03-12T09:37:37;5.30;99.90
3488;DHT22;38546;48.170;11.724;2023-03-12T09:40:29;5.20;99.90
3488;DHT22;38546;48.170;11.724;2023-03-12T09:43:28;5.30;99.90
3488;DHT22;38546;48.170;11.724;2023-03-12T09:46:35;5.40;99.90
3488;DHT22;38546;48.170;11.724;2023-03-12T09:49:38;5.30;99.90
3488;DHT22;38546;48.170;11.724;2023-03-12T09:52:43;5.30;99.90
3488;DHT22;38546;48.170;11.724;2023-03-12T09:55:39;5.50;99.90
3488;DHT22;38546;48.170;11.724;2023-03-12T09:58:32;5.50;99.90
3488;DHT22;38546;48.170;11.724;2023-03-12T10:07:23;5.50;99.90
3488;DHT22;38546;48.170;11.724;2023-03-12T10:10:46;5.10;99.90
3488;DHT22;38546;48.170;11.724;2023-03-12T10:19:53;5.10;99.90
3488;DHT22;38546;48.170;11.724;2023-03-12T10:23:53;4.90;99.90
3488;DHT22;38546;48.170;11.724;2023-03-12T10:26:54;4.90;99.90
3488;DHT22;38546;48.170;11.724;2023-03-12T10:29:47;4.90;99.90
3488;DHT22;38546;48.170;11.724;2023-03-12T10:32:43;4.80;99.90
3488;DHT22;38546;48.170;11.724;2023-03-12T10:35:38;4.70;99.90
3488;DHT22;38546;48.170;11.724;2023-03-12T10:38:29;4.50;99.90
3488;DHT22;38546;48.170;11.724;2023-03-12T10:41:24;4.40;99.90
3488;DHT22;38546;48.170;11.724;2023-03-12T10:44:20;4.40;99.90
3488;DHT22;38546;48.170;11.724;2023-03-12T10:54:01;4.40;99.90
3488;DHT22;38546;48.170;11.724;2023-03-12T10:57:11;4.30;99.90
3488;DHT22;38546;48.170;11.724;2023-03-12T11:00:08;4.20;99.90
3488;DHT22;38546;48.170;11.724;2023-03-12T11:03:03;4.20;99.90
3488;DHT22;38546;48.170;11.724;2023-03-12T11:05:58;4.10;99.90
3488;DHT22;38546;48.170;11.724;2023-03-12T11:12:25;4.10;99.90
3488;DHT22;38546;48.170;11.724;2023-03-12T11:15:25;4.20;99.90
3488;DHT22;38546;48.170;11.724;2023-03-12T11:18:35;4.20;99.90
3488;DHT22;38546;48.170;11.724;2023-03-12T11:21:25;4.30;99.90
3488;DHT22;38546;48.170;11.724;2023-03-12T11:24:14;4.30;99.90
3488;DHT22;38546;48.170;11.724;2023-03-12T11:28:04;4.30;99.90
3488;DHT22;38546;48.170;11.724;2023-03-12T11:30:56;4.30;99.90
3488;DHT22;38546;48.170;11.724;2023-03-12T11:33:46;4.40;99.90
3488;DHT22;38546;48.170;11.724;2023-03-12T11:52:02;4.70;99.90
3488;DHT22;38546;48.170;11.724;2023-03-12T11:57:41;4.90;99.90
3488;DHT22;38546;48.170;11.724;2023-03-12T12:03:07;5.00;99.90
3488;DHT22;38546;48.170;11.724;2023-03-12T12:06:21;5.20;99.90
3488;DHT22;38546;48.170;11.724;2023-03-12T12:09:43;5.30;99.90
3488;DHT22;38546;48.170;11.724;2023-03-12T12:23:52;5.30;99.90
3488;DHT22;38546;48.170;11.724;2023-03-12T12:27:43;5.60;99.90
3488;DHT22;38546;48.170;11.724;2023-03-12T12:31:08;5.60;99.90
3488;DHT22;38546;48.170;11.724;2023-03-12T12:38:59;5.50;99.90
3488;DHT22;38546;48.170;11.724;2023-03-12T12:42:03;5.50;99.90
3488;DHT22;38546;48.170;11.724;2023-03-12T12:44:55;5.60;99.90
3488;DHT22;38546;48.170;11.724;2023-03-12T12:47:52;5.70;99.90
3488;DHT22;38546;48.170;11.724;2023-03-12T12:50:45;5.80;99.90
3488;DHT22;38546;48.170;11.724;2023-03-12T12:53:41;5.80;99.90
3488;DHT22;38546;48.170;11.724;2023-03-12T12:56:45;5.90;99.90
3488;DHT22;38546;48.170;11.724;2023-03-12T13:06:51;6.00;99.90
3488;DHT22;38546;48.170;11.724;2023-03-12T13:09:47;6.20;99.90
3488;DHT22;38546;48.170;11.724;2023-03-12T13:12:51;6.30;99.90
3488;DHT22;38546;48.170;11.724;2023-03-12T13:15:41;6.30;99.90
3488;DHT22;38546;48.170;11.724;2023-03-12T13:18:32;6.40;99.90
3488;DHT22;38546;48.170;11.724;2023-03-12T13:27:23;6.60;99.90
3488;DHT22;38546;48.170;11.724;2023-03-12T13:33:05;7.00;99.90
3488;DHT22;38546;48.170;11.724;2023-03-12T13:36:09;7.70;99.90
3488;DHT22;38546;48.170;11.724;2023-03-12T13:39:34;7.70;99.90
3488;DHT22;38546;48.170;11.724;2023-03-12T13:42:36;7.80;99.90
3488;DHT22;38546;48.170;11.724;2023-03-12T13:45:28;7.80;99.90
3488;DHT22;38546;48.170;11.724;2023-03-12T13:48:20;7.80;99.90
3488;DHT22;38546;48.170;11.724;2023-03-12T13:51:22;7.80;99.90
3488;DHT22;38546;48.170;11.724;2023-03-12T13:54:16;8.10;99.90
3488;DHT22;38546;48.170;11.724;2023-03-12T14:00:48;8.20;99.90
3488;DHT22;38546;48.170;11.724;2023-03-12T14:03:48;8.40;99.90
3488;DHT22;38546;48.170;11.724;2023-03-12T14:08:37;8.70;99.90
3488;DHT22;38546;48.170;11.724;2023-03-12T14:12:07;8.90;99.90
3488;DHT22;38546;48.170;11.724;2023-03-12T14:15:28;8.90;99.90
3488;DHT22;38546;48.170;11.724;2023-03-12T14:18:34;8.90;99.90
3488;DHT22;38546;48.170;11.724;2023-03-12T14:21:32;9.00;99.90
3488;DHT22;38546;48.170;11.724;2023-03-12T14:24:32;9.10;99.90
3488;DHT22;38546;48.170;11.724;2023-03-12T14:27:27;9.10;99.90
3488;DHT22;38546;48.170;11.724;2023-03-12T14:34:22;9.60;99.90
3488;DHT22;38546;48.170;11.724;2023-03-12T14:37:30;9.40;99.90
3488;DHT22;38546;48.170;11.724;2023-03-12T14:41:11;9.60;99.90
3488;DHT22;38546;48.170;11.724;2023-03-12T14:44:16;9.50;99.90
3488;DHT22;38546;48.170;11.724;2023-03-12T14:47:16;9.90;99.90
3488;DHT22;38546;48.170;11.724;2023-03-12T14:50:14;9.70;99.90
3488;DHT22;38546;48.170;11.724;2023-03-12T14:53:26;9.80;99.90
3488;DHT22;38546;48.170;11.724;2023-03-12T14:56:32;9.60;99.90
3488;DHT22;38546;48.170;11.724;2023-03-12T14:59:33;9.90;99.90
3488;DHT22;38546;48.170;11.724;2023-03-12T15:02:27;9.80;99.90
3488;DHT22;38546;48.170;11.724;2023-03-12T15:05:20;10.00;99.90
3488;DHT22;38546;48.170;11.724;2023-03-12T15:08:10;9.90;99.90
3488;DHT22;38546;48.170;11.724;2023-03-12T15:11:00;9.90;99.90
3488;DHT22;38546;48.170;11.724;2023-03-12T15:13:51;9.70;99.90
3488;DHT22;38546;48.170;11.724;2023-03-12T15:16:42;9.80;99.90
3488;DHT22;38546;48.170;11.724;2023-03-12T15:19:34;9.60;99.90
3488;DHT22;38546;48.170;11.724;2023-03-12T15:22:27;9.40;99.90
3488;DHT22;38546;48.170;11.724;2023-03-12T15:25:28;9.30;99.90
3488;DHT22;38546;48.170;11.724;2023-03-12T15:28:26;8.90;99.90
3488;DHT22;38546;48.170;11.724;2023-03-12T15:31:16;8.90;99.90
3488;DHT22;38546;48.170;11.724;2023-03-12T15:34:05;8.60;99.90
3488;DHT22;38546;48.170;11.724;2023-03-12T15:36:55;8.50;99.90
3488;DHT22;38546;48.170;11.724;2023-03-12T15:39:47;8.30;99.90
3488;DHT22;38546;48.170;11.724;2023-03-12T15:42:40;8.30;99.90
3488;DHT22;38546;48.170;11.724;2023-03-12T15:45:38;8.30;99.90
3488;DHT22;38546;48.170;11.724;2023-03-12T15:48:39;8.30;99.90
3488;DHT22;38546;48.170;11.724;2023-03-12T15:51:32;8.40;99.90
3488;DHT22;38546;48.170;11.724;2023-03-12T15:54:28;8.50;99.90
3488;DHT22;38546;48.170;11.724;2023-03-12T15:57:23;8.60;99.90
3488;DHT22;38546;48.170;11.724;2023-03-12T16:00:28;8.80;99.90
3488;DHT22;38546;48.170;11.724;2023-03-12T16:03:30;8.70;99.90
3488;DHT22;38546;48.170;11.724;2023-03-12T16:06:21;8.80;99.90
3488;DHT22;38546;48.170;11.724;2023-03-12T16:09:18;8.60;99.90
3488;DHT22;38546;48.170;11.724;2023-03-12T16:12:10;8.80;99.90
3488;DHT22;38546;48.170;11.724;2023-03-12T16:14:59;8.90;99.90
3488;DHT22;38546;48.170;11.724;2023-03-12T16:17:48;9.00;99.90
3488;DHT22;38546;48.170;11.724;2023-03-12T16:20:37;9.00;99.90
3488;DHT22;38546;48.170;11.724;2023-03-12T16:23:26;9.10;99.90
3488;DHT22;38546;48.170;11.724;2023-03-12T16:26:15;9.00;99.90
3488;DHT22;38546;48.170;11.724;2023-03-12T16:29:04;9.00;99.90
3488;DHT22;38546;48.170;11.724;2023-03-12T16:31:54;8.80;99.90
3488;DHT22;38546;48.170;11.724;2023-03-12T16:34:44;8.90;99.90
3488;DHT22;38546;48.170;11.724;2023-03-12T16:37:33;9.20;99.90
3488;DHT22;38546;48.170;11.724;2023-03-12T16:40:23;8.90;99.90
3488;DHT22;38546;48.170;11.724;2023-03-12T16:43:21;9.00;99.90
3488;DHT22;38546;48.170;11.724;2023-03-12T16:46:16;8.80;99.90
3488;DHT22;38546;48.170;11.724;2023-03-12T16:49:14;9.00;99.90
3488;DHT22;38546;48.170;11.724;2023-03-12T16:52:19;8.90;99.90
3488;DHT22;38546;48.170;11.724;2023-03-12T16:55:09;8.80;99.90
3488;DHT22;38546;48.170;11.724;2023-03-12T16:58:00;8.80;99.90
3488;DHT22;38546;48.170;11.724;2023-03-12T17:00:50;8.80;99.90
3488;DHT22;38546;48.170;11.724;2023-03-12T17:03:43;8.90;99.90
3488;DHT22;38546;48.170;11.724;2023-03-12T17:06:34;8.90;99.90
3488;DHT22;38546;48.170;11.724;2023-03-12T17:09:23;8.90;99.90
3488;DHT22;38546;48.170;11.724;2023-03-12T17:12:29;8.90;99.90
3488;DHT22;38546;48.170;11.724;2023-03-12T17:15:26;8.80;99.90
3488;DHT22;38546;48.170;11.724;2023-03-12T17:18:19;8.90;99.90
3488;DHT22;38546;48.170;11.724;2023-03-12T17:21:12;8.90;99.90
3488;DHT22;38546;48.170;11.724;2023-03-12T17:24:03;9.00;99.90
3488;DHT22;38546;48.170;11.724;2023-03-12T17:26:52;9.00;99.90
3488;DHT22;38546;48.170;11.724;2023-03-12T17:29:41;8.80;99.90
3488;DHT22;38546;48.170;11.724;2023-03-12T17:32:30;8.80;99.90
3488;DHT22;38546;48.170;11.724;2023-03-12T17:35:19;8.90;99.90
3488;DHT22;38546;48.170;11.724;2023-03-12T17:38:09;8.90;99.90
3488;DHT22;38546;48.170;11.724;2023-03-12T17:40:58;8.70;99.90
3488;DHT22;38546;48.170;11.724;2023-03-12T17:43:48;8.60;99.90
3488;DHT22;38546;48.170;11.724;2023-03-12T17:46:37;8.60;99.90
3488;DHT22;38546;48.170;11.724;2023-03-12T17:49:27;8.70;99.90
3488;DHT22;38546;48.170;11.724;2023-03-12T17:52:17;8.60;99.90
3488;DHT22;38546;48.170;11.724;2023-03-12T17:55:07;8.40;99.90
3488;DHT22;38546;48.170;11.724;2023-03-12T17:57:57;8.30;99.90
3488;DHT22;38546;48.170;11.724;2023-03-12T18:00:46;8.50;99.90
3488;DHT22;38546;48.170;11.724;2023-03-12T18:03:36;8.50;99.90
3488;DHT22;38546;48.170;11.724;2023-03-12T18:06:26;8.50;99.90
3488;DHT22;38546;48.170;11.724;2023-03-12T18:09:15;8.30;99.90
3488;DHT22;38546;48.170;11.724;2023-03-12T18:12:06;8.20;99.90
3488;DHT22;38546;48.170;11.724;2023-03-12T18:14:55;8.20;99.90
3488;DHT22;38546;48.170;11.724;2023-03-12T18:17:44;8.50;99.90
3488;DHT22;38546;48.170;11.724;2023-03-12T18:20:33;8.30;99.90
3488;DHT22;38546;48.170;11.724;2023-03-12T18:23:22;8.50;99.90
3488;DHT22;38546;48.170;11.724;2023-03-12T18:26:13;8.60;99.90
3488;DHT22;38546;48.170;11.724;2023-03-12T18:29:02;8.50;99.90
3488;DHT22;38546;48.170;11.724;2023-03-12T18:31:51;8.50;99.90
3488;DHT22;38546;48.170;11.724;2023-03-12T18:34:41;8.50;99.90
3488;DHT22;38546;48.170;11.724;2023-03-12T18:37:30;8.60;99.90
3488;DHT22;38546;48.170;11.724;2023-03-12T18:40:20;8.50;99.90
3488;DHT22;38546;48.170;11.724;2023-03-12T18:43:09;8.50;99.90
3488;DHT22;38546;48.170;11.724;2023-03-12T18:45:58;8.30;99.90
3488;DHT22;38546;48.170;11.724;2023-03-12T18:48:47;8.20;99.90
3488;DHT22;38546;48.170;11.724;2023-03-12T18:51:37;8.20;99.90
3488;DHT22;38546;48.170;11.724;2023-03-12T18:54:26;8.00;99.90
3488;DHT22;38546;48.170;11.724;2023-03-12T18:57:15;8.10;99.90
3488;DHT22;38546;48.170;11.724;2023-03-12T19:00:05;8.00;99.90
3488;DHT22;38546;48.170;11.724;2023-03-12T19:02:55;8.00;99.90
3488;DHT22;38546;48.170;11.724;2023-03-12T19:05:45;8.30;99.90
3488;DHT22;38546;48.170;11.724;2023-03-12T19:08:36;8.40;99.90
3488;DHT22;38546;48.170;11.724;2023-03-12T19:11:26;8.60;99.90
3488;DHT22;38546;48.170;11.724;2023-03-12T19:14:15;8.40;99.90
3488;DHT22;38546;48.170;11.724;2023-03-12T19:17:05;8.50;99.90
3488;DHT22;38546;48.170;11.724;2023-03-12T19:19:54;8.20;99.90
3488;DHT22;38546;48.170;11.724;2023-03-12T19:22:44;8.50;99.90
3488;DHT22;38546;48.170;11.724;2023-03-12T19:25:33;8.50;99.90
3488;DHT22;38546;48.170;11.724;2023-03-12T19:28:22;8.50;99.90
3488;DHT22;38546;48.170;11.724;2023-03-12T19:31:12;8.60;99.90
3488;DHT22;38546;48.170;11.724;2023-03-12T19:34:02;8.60;99.90
3488;DHT22;38546;48.170;11.724;2023-03-12T19:36:51;8.50;99.90
3488;DHT22;38546;48.170;11.724;2023-03-12T19:39:40;8.50;99.90
3488;DHT22;38546;48.170;11.724;2023-03-12T19:42:29;8.60;99.90
3488;DHT22;38546;48.170;11.724;2023-03-12T19:45:19;8.40;99.90
3488;DHT22;38546;48.170;11.724;2023-03-12T19:48:08;8.50;99.90
3488;DHT22;38546;48.170;11.724;2023-03-12T19:51:02;8.60;99.90
3488;DHT22;38546;48.170;11.724;2023-03-12T19:53:52;8.60;99.90